Time;durP1;ratioP1;P1;durP2;ratioP2;P2;SDS_P1;SDS_P2;PMS_P1;PMS_P2;Temp;Humidity;BMP_temperature;BMP_pressure;BME280_temperature;BME280_humidity;BME280_pressure;Samples;Min_cycle;Max_cycle;Signal;HPM_P1;HPM_P2
2022/12/11 00:04:00;;;;;;;59.60;26.77;;;0.30;99.90;;;;;;2614379;54;20754;-77
2022/12/11 00:09:48;;;;;;;60.23;25.70;;;0.30;99.90;;;;;;2614594;54;20134;-78
2022/12/11 00:15:37;;;;;;;68.03;25.77;;;0.30;99.90;;;;;;2615223;54;20387;-79
2022/12/11 00:21:24;;;;;;;65.23;27.63;;;0.40;99.90;;;;;;2615541;54;20412;-79
2022/12/11 00:27:12;;;;;;;71.73;29.27;;;0.30;99.90;;;;;;2614169;54;20183;-78
2022/12/11 00:33:00;;;;;;;59.27;27.80;;;0.30;99.90;;;;;;2615316;54;20182;-77
2022/12/11 00:42:54;;;;;;;71.10;29.30;;;0.30;99.90;;;;;;2614762;54;20379;-78
2022/12/11 00:48:41;;;;;;;80.33;29.87;;;0.40;99.90;;;;;;2615332;54;20387;-78
2022/12/11 00:54:29;;;;;;;74.77;28.20;;;0.40;99.90;;;;;;2615019;54;20163;-78
2022/12/11 01:00:17;;;;;;;66.23;24.20;;;0.40;99.90;;;;;;2615212;54;20146;-78
2022/12/11 01:06:06;;;;;;;76.67;30.70;;;0.50;99.90;;;;;;2615539;54;20411;-77
2022/12/11 01:11:54;;;;;;;67.87;29.70;;;0.50;99.90;;;;;;2615446;54;20510;-75
2022/12/11 01:17:41;;;;;;;86.57;29.53;;;0.50;99.90;;;;;;2614850;54;20138;-78
2022/12/11 01:23:29;;;;;;;82.60;29.20;;;0.60;99.90;;;;;;2614671;54;20130;-77
2022/12/11 01:29:17;;;;;;;76.70;28.60;;;0.50;99.90;;;;;;2612334;54;20235;-77
2022/12/11 01:35:06;;;;;;;88.63;29.23;;;0.50;99.90;;;;;;2614286;54;20123;-78
2022/12/11 01:37:50;;;;;;;73.77;27.63;;;0.50;99.90;;;;;;2615090;54;20470;-78
2022/12/11 01:50:36;;;;;;;98.00;32.07;;;0.50;99.90;;;;;;2612756;54;20413;-78
2022/12/11 01:56:23;;;;;;;76.13;28.40;;;0.50;99.90;;;;;;2612243;54;20534;-78
2022/12/11 02:08:30;;;;;;;92.13;30.43;;;0.50;99.90;;;;;;2614004;54;20404;-77
2022/12/11 02:14:26;;;;;;;84.07;33.60;;;0.50;99.90;;;;;;2612420;54;20133;-79
2022/12/11 02:20:26;;;;;;;94.73;29.67;;;0.60;99.90;;;;;;2614211;46;20390;-78
2022/12/11 02:32:56;;;;;;;71.33;29.47;;;0.60;99.90;;;;;;2616044;54;20450;-78
2022/12/11 02:38:49;;;;;;;80.83;28.10;;;0.60;99.90;;;;;;2615842;54;20411;-78
2022/12/11 02:44:38;;;;;;;66.37;27.43;;;0.60;99.90;;;;;;2615428;54;20531;-77
2022/12/11 02:50:27;;;;;;;60.97;27.00;;;0.70;99.90;;;;;;2615742;54;20411;-77
2022/12/11 02:56:19;;;;;;;69.97;27.93;;;0.60;99.90;;;;;;2615981;54;20392;-78
2022/12/11 03:02:07;;;;;;;55.07;24.30;;;0.70;99.90;;;;;;2615159;54;20587;-77
2022/12/11 03:07:55;;;;;;;54.73;24.97;;;0.70;99.90;;;;;;2615966;54;20388;-76
2022/12/11 03:20:30;;;;;;;64.00;23.87;;;0.60;99.90;;;;;;2615368;54;20387;-76
2022/12/11 03:26:19;;;;;;;64.97;26.40;;;0.60;99.90;;;;;;2616069;54;20447;-78
2022/12/11 03:32:12;;;;;;;70.07;26.80;;;0.60;99.90;;;;;;2615274;54;20441;-78
2022/12/11 03:38:05;;;;;;;69.63;26.80;;;0.70;99.90;;;;;;2616104;54;20451;-77
2022/12/11 03:43:57;;;;;;;71.67;30.40;;;0.70;99.90;;;;;;2615944;54;20520;-77
2022/12/11 03:49:46;;;;;;;69.13;25.23;;;0.60;99.90;;;;;;2614631;46;20431;-72
2022/12/11 03:55:36;;;;;;;63.27;26.40;;;0.70;99.90;;;;;;2614706;54;20379;-72
2022/12/11 04:01:24;;;;;;;44.57;21.00;;;0.70;99.90;;;;;;2615891;54;20528;-76
2022/12/11 04:07:11;;;;;;;66.70;28.40;;;0.70;99.90;;;;;;2616080;54;20134;-78
2022/12/11 04:12:59;;;;;;;69.10;28.83;;;0.80;99.90;;;;;;2615900;54;20376;-78
2022/12/11 04:24:53;;;;;;;62.73;24.63;;;0.70;99.90;;;;;;2615573;39;20775;-78
2022/12/11 04:30:48;;;;;;;60.90;27.20;;;0.80;99.90;;;;;;2616134;54;20174;-77
2022/12/11 04:36:36;;;;;;;55.87;27.93;;;0.70;99.90;;;;;;2615795;54;20399;-78
2022/12/11 04:39:39;;;;;;;57.97;25.10;;;0.80;99.90;;;;;;2615258;39;20471;-77
2022/12/11 04:42:04;;;;;;;59.27;26.63;;;0.80;99.90;;;;;;2615712;54;20422;-78
2022/12/11 04:47:52;;;;;;;54.47;22.90;;;0.80;99.90;;;;;;2616089;39;20532;-79
2022/12/11 04:53:40;;;;;;;63.83;25.43;;;0.90;99.90;;;;;;2615884;54;20137;-78
2022/12/11 04:59:27;;;;;;;53.50;22.10;;;0.90;99.90;;;;;;2616084;54;20166;-77
2022/12/11 05:05:15;;;;;;;54.37;22.27;;;0.80;99.90;;;;;;2615565;39;20583;-79
2022/12/11 05:11:06;;;;;;;54.83;26.37;;;0.80;99.90;;;;;;2615496;54;20131;-77
2022/12/11 05:16:54;;;;;;;60.30;27.83;;;0.80;99.90;;;;;;2615166;54;20441;-78
2022/12/11 05:22:42;;;;;;;46.90;22.00;;;0.90;99.90;;;;;;2615198;54;20141;-78
2022/12/11 05:28:32;;;;;;;55.43;26.80;;;1.00;99.90;;;;;;2615739;54;20130;-77
2022/12/11 05:34:20;;;;;;;58.00;26.20;;;1.10;99.90;;;;;;2615926;54;20503;-75
2022/12/11 05:44:07;;;;;;;49.40;23.70;;;0.90;99.90;;;;;;2615557;39;20683;-75
2022/12/11 05:49:55;;;;;;;54.10;25.27;;;1.00;99.90;;;;;;2615728;54;20972;-79
2022/12/11 05:55:42;;;;;;;56.33;25.20;;;1.00;99.90;;;;;;2615683;54;20134;-78
2022/12/11 06:01:34;;;;;;;48.40;25.00;;;0.90;99.90;;;;;;2614319;54;20636;-78
2022/12/11 06:07:21;;;;;;;50.30;25.10;;;1.00;99.90;;;;;;2616245;54;20383;-77
2022/12/11 06:13:09;;;;;;;50.23;24.40;;;0.90;99.90;;;;;;2615847;54;20169;-78
2022/12/11 06:18:57;;;;;;;50.57;24.37;;;0.90;99.90;;;;;;2616391;54;20135;-78
2022/12/11 06:24:45;;;;;;;48.83;21.83;;;1.00;99.90;;;;;;2615630;54;20390;-78
2022/12/11 06:30:32;;;;;;;46.53;22.30;;;1.00;99.90;;;;;;2615770;54;20234;-78
2022/12/11 06:36:23;;;;;;;43.23;22.63;;;0.90;99.90;;;;;;2616159;46;20150;-78
2022/12/11 06:39:40;;;;;;;47.07;24.77;;;0.90;99.90;;;;;;2613969;50;20409;-77
2022/12/11 06:42:05;;;;;;;45.33;22.60;;;0.90;99.90;;;;;;2614049;47;20427;-78
2022/12/11 06:47:53;;;;;;;51.23;25.37;;;1.10;99.90;;;;;;2616091;39;20507;-78
2022/12/11 06:53:41;;;;;;;49.13;23.20;;;0.90;99.90;;;;;;2615520;54;20247;-80
2022/12/11 06:59:29;;;;;;;37.73;21.60;;;1.00;99.90;;;;;;2614863;54;20398;-77
2022/12/11 07:05:17;;;;;;;50.43;21.50;;;1.00;99.90;;;;;;2615561;54;20271;-78
2022/12/11 07:11:10;;;;;;;44.33;24.83;;;1.00;99.90;;;;;;2614675;54;20431;-75
2022/12/11 07:16:58;;;;;;;45.37;22.57;;;1.00;99.90;;;;;;2615151;54;20957;-76
2022/12/11 07:22:46;;;;;;;56.07;25.03;;;1.00;99.90;;;;;;2611943;54;20944;-79
2022/12/11 07:28:34;;;;;;;52.00;25.70;;;1.00;99.90;;;;;;2614428;54;20134;-77
2022/12/11 07:34:21;;;;;;;47.13;26.30;;;1.00;99.90;;;;;;2615048;54;20392;-78
2022/12/11 07:44:15;;;;;;;41.80;24.00;;;0.90;99.90;;;;;;2613484;54;20451;-78
2022/12/11 07:50:02;;;;;;;51.93;25.50;;;1.00;99.90;;;;;;2613921;39;21033;-77
2022/12/11 07:55:50;;;;;;;47.10;22.63;;;1.10;99.90;;;;;;2614086;54;20499;-76
2022/12/11 08:01:39;;;;;;;46.83;21.20;;;1.00;99.90;;;;;;2614002;54;20154;-78
2022/12/11 08:07:26;;;;;;;41.30;21.90;;;1.00;99.90;;;;;;2614117;54;20383;-77
2022/12/11 08:13:14;;;;;;;40.23;20.50;;;1.00;99.90;;;;;;2615059;54;20227;-79
2022/12/11 08:19:02;;;;;;;56.23;24.57;;;1.10;99.90;;;;;;2614054;54;20496;-78
2022/12/11 08:24:50;;;;;;;52.63;26.43;;;1.10;99.90;;;;;;2614248;54;20166;-75
2022/12/11 08:30:39;;;;;;;47.57;24.53;;;1.00;99.90;;;;;;2613219;54;20130;-78
2022/12/11 08:36:27;;;;;;;56.17;24.20;;;1.20;99.90;;;;;;2615128;54;20540;-79
2022/12/11 08:42:25;;;;;;;51.43;25.47;;;1.20;99.90;;;;;;2614011;47;20388;-79
2022/12/11 08:48:12;;;;;;;54.57;24.67;;;1.30;99.90;;;;;;2613702;54;20690;-78
2022/12/11 08:54:00;;;;;;;58.00;27.50;;;1.00;99.90;;;;;;2613793;54;20235;-79
2022/12/11 08:59:47;;;;;;;51.63;25.47;;;1.00;99.90;;;;;;2614160;54;20639;-79
2022/12/11 09:05:34;;;;;;;59.83;28.13;;;1.00;99.90;;;;;;2614017;54;20235;-78
2022/12/11 09:11:24;;;;;;;47.40;23.10;;;1.20;99.90;;;;;;2613371;54;20139;-78
2022/12/11 09:17:11;;;;;;;57.93;29.23;;;1.20;99.90;;;;;;2613925;54;20419;-79
2022/12/11 09:22:59;;;;;;;55.23;27.50;;;1.30;99.90;;;;;;2614815;54;20210;-79
2022/12/11 09:28:50;;;;;;;51.60;27.77;;;1.30;99.90;;;;;;2615678;54;20411;-79
2022/12/11 09:34:38;;;;;;;44.20;24.07;;;1.20;99.90;;;;;;2614645;54;20407;-80
2022/12/11 09:44:16;;;;;;;53.83;26.20;;;1.30;99.90;;;;;;2615167;54;20423;-78
2022/12/11 09:56:56;;;;;;;64.17;26.07;;;1.40;99.90;;;;;;2615278;54;20415;-79
2022/12/11 10:13:17;;;;;;;55.37;26.87;;;1.30;99.90;;;;;;2614586;54;20471;-76
2022/12/11 10:19:09;;;;;;;48.37;26.97;;;1.30;99.90;;;;;;2614389;54;20457;-79
2022/12/11 10:24:59;;;;;;;58.60;29.67;;;1.30;99.90;;;;;;2612755;54;20415;-78
2022/12/11 10:34:56;;;;;;;63.40;29.10;;;1.40;99.90;;;;;;2613472;54;21020;-77
2022/12/11 10:44:16;;;;;;;57.97;27.30;;;1.30;99.90;;;;;;2614211;54;20419;-79
2022/12/11 10:50:04;;;;;;;48.53;25.37;;;1.50;99.90;;;;;;2612330;54;20382;-77
2022/12/11 10:55:52;;;;;;;59.57;25.60;;;1.60;99.90;;;;;;2613421;54;20375;-78
2022/12/11 11:07:50;;;;;;;57.13;26.03;;;1.30;99.90;;;;;;2613758;54;20460;-75
2022/12/11 11:13:37;;;;;;;69.30;26.50;;;1.40;99.90;;;;;;2615310;46;20154;-79
2022/12/11 11:19:35;;;;;;;39.33;20.80;;;1.30;99.90;;;;;;2615664;54;20281;-78
2022/12/11 11:25:26;;;;;;;43.73;20.90;;;1.30;99.90;;;;;;2614408;54;20394;-78
2022/12/11 11:31:18;;;;;;;43.43;21.20;;;1.40;99.90;;;;;;2615424;54;20451;-79
2022/12/11 11:53:40;;;;;;;49.97;23.30;;;1.50;99.90;;;;;;2614019;54;20418;-78
2022/12/11 12:19:54;;;;;;;38.53;21.27;;;1.60;99.90;;;;;;2614888;54;20407;-81
2022/12/11 12:36:30;;;;;;;39.00;22.23;;;1.60;99.90;;;;;;2616122;46;20441;-80
2022/12/11 12:46:18;;;;;;;38.00;19.13;;;1.80;99.90;;;;;;2616144;54;20899;-78
2022/12/11 12:58:42;;;;;;;33.33;20.40;;;1.80;99.90;;;;;;2614192;54;20559;-77
2022/12/11 13:04:36;;;;;;;33.93;20.40;;;1.90;99.90;;;;;;2615185;54;20475;-77
2022/12/11 13:23:16;;;;;;;36.23;20.03;;;1.90;99.90;;;;;;2614166;54;20528;-76
2022/12/11 13:29:04;;;;;;;29.27;18.37;;;1.70;99.90;;;;;;2613525;54;20435;-77
2022/12/11 13:35:04;;;;;;;32.07;19.50;;;1.80;99.90;;;;;;2609808;54;20271;-77
2022/12/11 13:41:46;;;;;;;29.73;18.80;;;1.70;99.90;;;;;;2610477;54;20431;-77
2022/12/11 13:50:32;;;;;;;36.40;20.30;;;1.90;99.90;;;;;;2610246;54;20400;-76
2022/12/11 13:56:21;;;;;;;30.10;19.10;;;1.70;99.90;;;;;;2611780;54;20406;-78
2022/12/11 14:08:55;;;;;;;35.27;21.07;;;1.80;99.90;;;;;;2611074;54;20424;-74
2022/12/11 14:14:47;;;;;;;29.70;19.13;;;1.60;99.90;;;;;;2613229;54;20960;-79
2022/12/11 14:20:34;;;;;;;33.30;17.47;;;1.80;99.90;;;;;;2610091;54;20544;-77
2022/12/11 14:26:24;;;;;;;28.87;17.70;;;1.80;99.90;;;;;;2610027;54;20660;-77
2022/12/11 14:38:51;;;;;;;35.33;20.63;;;1.80;99.90;;;;;;2614227;54;21006;-78
2022/12/11 14:44:50;;;;;;;38.60;18.27;;;1.90;99.90;;;;;;2614207;54;20402;-79
2022/12/11 14:50:47;;;;;;;37.60;19.70;;;1.60;99.90;;;;;;2614713;54;20944;-80
2022/12/11 14:56:53;;;;;;;34.60;20.00;;;1.70;99.90;;;;;;2614759;54;20504;-78
2022/12/11 15:02:40;;;;;;;42.30;21.67;;;1.80;99.90;;;;;;2614232;54;21013;-77
2022/12/11 15:08:33;;;;;;;37.87;21.63;;;1.80;99.90;;;;;;2614596;54;20286;-81
2022/12/11 15:14:22;;;;;;;32.27;20.97;;;1.70;99.90;;;;;;2614555;54;20367;-76
2022/12/11 15:26:46;;;;;;;43.07;23.17;;;1.70;99.90;;;;;;2613580;54;20543;-78
2022/12/11 15:32:33;;;;;;;31.60;20.70;;;1.70;99.90;;;;;;2615468;54;20452;-79
2022/12/11 15:38:28;;;;;;;38.80;22.13;;;1.60;99.90;;;;;;2615529;54;20234;-78
2022/12/11 15:47:54;;;;;;;46.57;23.77;;;1.60;99.90;;;;;;2616227;54;20460;-77
2022/12/11 15:50:57;;;;;;;35.23;21.90;;;1.60;99.90;;;;;;2615410;47;20491;-78
2022/12/11 15:53:23;;;;;;;37.93;22.53;;;1.60;99.90;;;;;;2615232;47;20411;-78
2022/12/11 15:59:11;;;;;;;40.17;23.50;;;1.80;99.90;;;;;;2615762;54;20167;-79
2022/12/11 16:04:58;;;;;;;56.13;31.40;;;1.80;99.90;;;;;;2615530;54;20146;-78
2022/12/11 16:10:47;;;;;;;36.53;20.67;;;1.70;99.90;;;;;;2615345;54;20968;-78
2022/12/11 16:16:35;;;;;;;37.70;23.47;;;1.80;99.90;;;;;;2615558;54;20399;-77
2022/12/11 16:22:22;;;;;;;40.37;23.40;;;1.70;99.90;;;;;;2615362;54;20146;-78
2022/12/11 16:28:12;;;;;;;43.23;23.20;;;1.50;99.90;;;;;;2615404;54;20134;-76
2022/12/11 16:34:00;;;;;;;42.80;23.87;;;1.60;99.90;;;;;;2614949;54;20377;-79
2022/12/11 16:39:48;;;;;;;46.57;26.80;;;1.70;99.90;;;;;;2614929;54;20135;-80
2022/12/11 16:45:36;;;;;;;37.47;22.73;;;1.70;99.90;;;;;;2615660;54;20244;-78
2022/12/11 16:51:23;;;;;;;36.13;23.43;;;1.50;99.90;;;;;;2615162;54;20126;-80
2022/12/11 16:57:11;;;;;;;57.33;30.83;;;1.60;99.90;;;;;;2615777;54;20175;-79
2022/12/11 17:02:59;;;;;;;36.63;23.73;;;1.60;99.90;;;;;;2615618;54;20174;-78
2022/12/11 17:08:47;;;;;;;41.37;24.67;;;1.60;99.90;;;;;;2616075;54;20663;-79
2022/12/11 17:14:35;;;;;;;40.90;24.40;;;1.60;99.90;;;;;;2615532;54;20907;-77
2022/12/11 17:20:23;;;;;;;46.83;27.53;;;1.60;99.90;;;;;;2615517;54;20117;-79
2022/12/11 17:26:11;;;;;;;45.70;26.33;;;1.70;99.90;;;;;;2614119;54;20149;-78
2022/12/11 17:31:58;;;;;;;43.00;24.80;;;1.50;99.90;;;;;;2614869;54;21383;-78
2022/12/11 17:37:46;;;;;;;49.70;25.90;;;1.60;99.90;;;;;;2615800;54;20163;-78
2022/12/11 17:47:02;;;;;;;42.40;26.90;;;1.50;99.90;;;;;;2614855;54;20416;-77
2022/12/11 17:52:50;;;;;;;36.33;24.23;;;1.50;99.90;;;;;;2614711;54;20427;-74
2022/12/11 17:58:38;;;;;;;42.07;26.37;;;1.40;99.90;;;;;;2612229;54;20410;-74
2022/12/11 18:04:26;;;;;;;39.00;26.70;;;1.40;99.90;;;;;;2609584;54;20134;-78
2022/12/11 18:06:52;;;;;;;39.70;27.33;;;1.50;99.90;;;;;;2612994;39;20782;-81
2022/12/11 18:09:18;;;;;;;45.10;29.57;;;1.40;99.90;;;;;;2608059;54;20169;-78
2022/12/11 18:15:06;;;;;;;56.93;29.07;;;1.40;99.90;;;;;;2612158;54;20147;-78
2022/12/11 18:20:54;;;;;;;45.67;28.70;;;1.40;99.90;;;;;;2615300;54;20395;-77
2022/12/11 18:26:41;;;;;;;48.63;30.73;;;1.40;99.90;;;;;;2615974;54;20150;-78
2022/12/11 18:32:29;;;;;;;46.57;28.37;;;1.30;99.90;;;;;;2615658;54;20158;-78
2022/12/11 18:38:17;;;;;;;39.93;25.80;;;1.30;99.90;;;;;;2616404;54;20243;-80
2022/12/11 18:47:33;;;;;;;46.23;31.40;;;1.40;99.90;;;;;;2615621;54;20422;-80
2022/12/11 18:53:21;;;;;;;46.57;28.37;;;1.40;99.90;;;;;;2616053;54;20374;-78
2022/12/11 18:59:12;;;;;;;39.93;26.90;;;1.40;99.90;;;;;;2616560;46;20137;-78
2022/12/11 19:04:59;;;;;;;49.77;28.40;;;1.40;99.90;;;;;;2615514;39;20863;-78
2022/12/11 19:10:47;;;;;;;47.20;27.13;;;1.30;99.90;;;;;;2615246;54;20631;-80
2022/12/11 19:16:41;;;;;;;48.20;27.17;;;1.30;99.90;;;;;;2615084;54;20135;-78
2022/12/11 19:22:28;;;;;;;45.27;27.77;;;1.20;99.90;;;;;;2614458;54;20395;-80
2022/12/11 19:28:16;;;;;;;42.43;25.33;;;1.20;99.90;;;;;;2611422;54;20151;-81
2022/12/11 19:34:03;;;;;;;37.80;26.03;;;1.30;99.90;;;;;;2613956;54;20391;-80
2022/12/11 19:39:50;;;;;;;44.40;25.80;;;1.30;99.90;;;;;;2615225;54;20146;-75
2022/12/11 19:43:02;;;;;;;40.47;27.33;;;1.30;99.90;;;;;;2613456;54;20399;-79
2022/12/11 19:45:28;;;;;;;48.83;28.17;;;1.30;99.90;;;;;;2615412;54;20213;-79
2022/12/11 19:51:22;;;;;;;46.47;25.97;;;1.20;99.90;;;;;;2615556;54;20126;-80
2022/12/11 19:57:10;;;;;;;46.23;27.47;;;1.30;99.90;;;;;;2615614;54;20403;-79
2022/12/11 20:02:57;;;;;;;53.83;27.50;;;1.40;99.90;;;;;;2614314;46;20170;-80
2022/12/11 20:08:45;;;;;;;51.43;28.33;;;1.30;99.90;;;;;;2614296;54;20142;-82
2022/12/11 20:14:33;;;;;;;54.73;30.37;;;1.20;99.90;;;;;;2615623;54;20185;-80
2022/12/11 20:20:22;;;;;;;45.70;30.90;;;1.40;99.90;;;;;;2615640;54;20126;-77
2022/12/11 20:26:16;;;;;;;43.13;25.87;;;1.30;99.90;;;;;;2615483;54;20904;-80
2022/12/11 20:32:04;;;;;;;48.73;29.27;;;1.40;99.90;;;;;;2615617;54;20359;-81
2022/12/11 20:37:52;;;;;;;45.17;27.67;;;1.30;99.90;;;;;;2615486;54;20427;-79
2022/12/11 20:47:33;;;;;;;47.00;28.70;;;1.20;99.90;;;;;;2614525;54;20395;-79
2022/12/11 20:53:20;;;;;;;48.90;29.60;;;1.20;99.90;;;;;;2614987;54;20419;-76
2022/12/11 20:59:09;;;;;;;42.40;24.93;;;1.30;99.90;;;;;;2614936;54;20214;-80
2022/12/11 21:04:57;;;;;;;40.33;27.20;;;1.20;99.90;;;;;;2615187;54;20435;-79
2022/12/11 21:10:45;;;;;;;41.37;25.90;;;1.20;99.90;;;;;;2615182;54;20146;-79
2022/12/11 21:16:35;;;;;;;40.40;25.63;;;1.20;99.90;;;;;;2612302;54;20161;-79
2022/12/11 21:22:23;;;;;;;51.27;27.00;;;1.20;99.90;;;;;;2613893;54;20387;-78
2022/12/11 21:28:10;;;;;;;44.00;26.27;;;1.20;99.90;;;;;;2615450;54;20354;-82
2022/12/11 21:33:59;;;;;;;44.53;27.57;;;1.10;99.90;;;;;;2613916;54;20170;-81
2022/12/11 21:39:47;;;;;;;41.33;26.93;;;1.20;99.90;;;;;;2614235;54;20427;-79
2022/12/11 21:43:02;;;;;;;52.33;29.67;;;1.20;99.90;;;;;;2613807;47;20450;-78
2022/12/11 21:45:28;;;;;;;53.63;28.33;;;1.20;99.90;;;;;;2613182;54;20534;-78
2022/12/11 21:48:31;;;;;;;51.77;29.80;;;1.20;99.90;;;;;;2613946;47;20545;-76
2022/12/11 21:57:29;;;;;;;40.57;25.87;;;1.30;99.90;;;;;;2614657;54;20523;-79
2022/12/11 22:03:17;;;;;;;48.53;27.23;;;1.20;99.90;;;;;;2614419;54;20723;-77
2022/12/11 22:09:05;;;;;;;48.43;27.17;;;1.20;99.90;;;;;;2614591;54;20267;-78
2022/12/11 22:14:53;;;;;;;41.73;26.40;;;1.20;99.90;;;;;;2614300;31;20541;-78
2022/12/11 22:20:41;;;;;;;47.13;28.73;;;1.20;99.90;;;;;;2614310;39;21009;-78
2022/12/11 22:26:28;;;;;;;47.83;26.70;;;1.20;99.90;;;;;;2614156;54;20422;-79
2022/12/11 22:32:16;;;;;;;44.10;25.77;;;1.20;99.90;;;;;;2613535;54;20135;-79
2022/12/11 22:38:07;;;;;;;48.20;27.90;;;1.30;99.90;;;;;;2613769;54;20146;-79
2022/12/11 22:47:36;;;;;;;48.77;29.50;;;1.40;99.90;;;;;;2615451;54;20387;-80
2022/12/11 22:53:24;;;;;;;44.77;29.30;;;1.40;99.90;;;;;;2613860;54;20426;-77
2022/12/11 22:59:11;;;;;;;50.70;28.80;;;1.40;99.90;;;;;;2615591;39;20561;-77
2022/12/11 23:04:59;;;;;;;48.83;29.43;;;1.30;99.90;;;;;;2614698;54;20130;-77
2022/12/11 23:10:47;;;;;;;47.77;28.57;;;1.20;99.90;;;;;;2614645;54;20702;-78
2022/12/11 23:16:34;;;;;;;47.30;28.93;;;1.20;99.90;;;;;;2614044;54;20523;-76
2022/12/11 23:22:24;;;;;;;49.63;30.93;;;1.30;99.90;;;;;;2611724;54;20135;-76
2022/12/11 23:28:11;;;;;;;48.00;28.63;;;1.30;99.90;;;;;;2613869;54;20438;-78
2022/12/11 23:33:58;;;;;;;47.93;28.60;;;1.20;99.90;;;;;;2613727;54;20188;-75
2022/12/11 23:39:46;;;;;;;47.57;27.10;;;1.20;99.90;;;;;;2613591;54;20362;-78
2022/12/11 23:43:04;;;;;;;46.93;28.90;;;1.20;99.90;;;;;;2612602;54;20391;-78
2022/12/11 23:45:29;;;;;;;50.27;28.03;;;1.30;99.90;;;;;;2613402;39;20332;-78
2022/12/11 23:47:55;;;;;;;52.57;30.50;;;1.40;99.90;;;;;;2613518;47;20425;-78
2022/12/11 23:50:24;;;;;;;49.20;28.40;;;1.30;99.90;;;;;;2613924;54;20170;-79
